Language: 


Des rapports , des résumés tant et plus, au choix de chacun....


Données statistiques de la station
Quotidien Rapport Juillet 21, 2017 Unités:  Anglais    Métrique   les deux
« Précédent Jour
Suivant Jour »
Quotidien Hebdomadaire Mensuel Annuel Actuel
  Haut: Bas: Moyen:
Température: 81.7 °F 48.7 °F 66.2 °F
Pt de rosée: 59 °F 46.4 °F 51.6 °F
Humidité: 97 % 32 % 64 %
Vitesse du vent: 11.9 mph 0 mph 2.5 mph
Rafales: 16.6 mph - -
Vent:- - South
Pression: 29.9 in 29.7 in -
Précipitation: 0 in    
Historical Graphs
 
 
Données statistiques pour Juillet 21, 2017
Heure Température Point de rosée Pression Vent Vitesse du vent Refales Humidité Pluie (taux horaire)
00:02 56.5 °F 51.8 °F 29.9 in Calm   4.7 mph 81 % 0 in
00:04 56.5 °F 51.8 °F 29.9 in SSW 2.5 mph 4.7 mph 81 % 0 in
00:09 56.5 °F 51.8 °F 29.9 in SSW 4.3 mph 5.8 mph 82 % 0 in
00:14 56.5 °F 51.8 °F 29.9 in SSW 1.3 mph 5.8 mph 83 % 0 in
00:19 56.5 °F 51.8 °F 29.9 in Calm   4.3 mph 83 % 0 in
00:24 56.5 °F 51.8 °F 29.9 in SW 4.7 mph 4.7 mph 83 % 0 in
00:29 56.5 °F 51.8 °F 29.9 in SSW 4 mph 7.2 mph 83 % 0 in
00:34 56.3 °F 51.8 °F 29.9 in SW 2.5 mph 7.2 mph 83 % 0 in
00:39 56.5 °F 51.8 °F 29.9 in Calm   4.9 mph 84 % 0 in
00:44 56.5 °F 51.8 °F 29.9 in Calm   4.3 mph 84 % 0 in
00:49 56.7 °F 51.8 °F 29.9 in South 1.6 mph 4.3 mph 84 % 0 in
00:54 56.5 °F 51.8 °F 29.9 in Calm   4.3 mph 84 % 0 in
00:59 56.3 °F 51.8 °F 29.9 in Calm   3.1 mph 84 % 0 in
01:05 56.3 °F 51.8 °F 29.9 in Calm   3.1 mph 84 % 0 in
01:10 56.1 °F 51.8 °F 29.9 in Calm   3.4 mph 84 % 0 in
01:15 55.8 °F 51.8 °F 29.9 in Calm   3.4 mph 84 % 0 in
01:20 55.4 °F 51.8 °F 29.9 in Calm   2.5 mph 84 % 0 in
01:25 55.4 °F 51.8 °F 29.9 in WSW 0.9 mph 2.5 mph 85 % 0 in
01:30 55.4 °F 51.8 °F 29.9 in SW 2.7 mph 2.9 mph 85 % 0 in
01:35 55.4 °F 51.8 °F 29.9 in Calm   2.9 mph 85 % 0 in
01:40 55 °F 51.8 °F 29.9 in Calm   2.7 mph 86 % 0 in
01:45 54.7 °F 51.8 °F 29.9 in Calm   3.4 mph 86 % 0 in
01:50 54.5 °F 51.8 °F 29.9 in Calm   3.4 mph 87 % 0 in
01:55 54.5 °F 51.8 °F 29.9 in Calm   3.8 mph 87 % 0 in
02:00 54.5 °F 51.8 °F 29.9 in SSW 2.7 mph 3.8 mph 87 % 0 in
02:05 54.5 °F 51.8 °F 29.9 in SSW 2.5 mph 3.8 mph 88 % 0 in
02:10 54.7 °F 51.8 °F 29.9 in South 3.1 mph 4 mph 88 % 0 in
02:15 54.7 °F 51.8 °F 29.9 in SSW 1.3 mph 3.8 mph 88 % 0 in
02:20 54.7 °F 51.8 °F 29.9 in Calm   4.5 mph 88 % 0 in
02:25 54.5 °F 51.8 °F 29.9 in Calm   4.5 mph 88 % 0 in
02:30 54.3 °F 51.8 °F 29.9 in Calm     88 % 0 in
02:35 54 °F 50 °F 29.9 in Calm     88 % 0 in
02:40 53.8 °F 50 °F 29.9 in SSW 0.9 mph 0.9 mph 88 % 0 in
02:45 53.4 °F 50 °F 29.9 in Calm   1.3 mph 88 % 0 in
02:50 53.2 °F 50 °F 29.9 in Calm   1.3 mph 88 % 0 in
02:55 53.1 °F 50 °F 29.9 in Calm   0.9 mph 88 % 0 in
03:00 52.5 °F 48.2 °F 29.9 in Calm   0.9 mph 88 % 0 in
03:05 52.2 °F 50 °F 29.9 in Calm   2.7 mph 89 % 0 in
03:10 52 °F 48.2 °F 29.9 in South 0.9 mph 2.7 mph 90 % 0 in
03:15 52 °F 48.2 °F 29.9 in SSW 0.9 mph 1.3 mph 90 % 0 in
03:20 51.8 °F 50 °F 29.9 in Calm   1.3 mph 91 % 0 in
03:25 51.8 °F 50 °F 29.9 in Calm   1.6 mph 91 % 0 in
03:30 51.8 °F 50 °F 29.9 in Calm   1.6 mph 91 % 0 in
03:32 51.8 °F 50 °F 29.9 in Calm   1.6 mph 91 % 0 in
03:37 51.8 °F 50 °F 29.9 in Calm   1.3 mph 92 % 0 in
03:42 51.8 °F 50 °F 29.9 in Calm   1.3 mph 92 % 0 in
03:47 51.8 °F 50 °F 29.9 in Calm   1.1 mph 92 % 0 in
03:52 51.6 °F 50 °F 29.9 in Calm   1.1 mph 92 % 0 in
03:57 51.6 °F 50 °F 29.9 in Calm   1.1 mph 92 % 0 in
04:02 51.3 °F 48.2 °F 29.9 in Calm     92 % 0 in
04:07 51.1 °F 48.2 °F 29.9 in Calm     92 % 0 in
04:13 50.9 °F 48.2 °F 29.9 in Calm   1.3 mph 92 % 0 in
04:18 50.4 °F 48.2 °F 29.9 in Calm   1.3 mph 92 % 0 in
04:23 50 °F 48.2 °F 29.9 in Calm     91 % 0 in
04:28 49.6 °F 48.2 °F 29.9 in Calm     92 % 0 in
04:33 49.3 °F 48.2 °F 29.9 in Calm     92 % 0 in
04:38 49.1 °F 48.2 °F 29.9 in Calm     92 % 0 in
04:43 48.9 °F 46.4 °F 29.9 in Calm     92 % 0 in
04:48 49.1 °F 48.2 °F 29.9 in Calm     93 % 0 in
04:53 49.5 °F 48.2 °F 29.9 in Calm     94 % 0 in
04:58 49.5 °F 48.2 °F 29.9 in Calm     94 % 0 in
05:03 49.3 °F 48.2 °F 29.9 in Calm     94 % 0 in
05:08 49.3 °F 48.2 °F 29.9 in Calm     94 % 0 in
05:13 49.1 °F 48.2 °F 29.9 in Calm     94 % 0 in
05:15 48.9 °F 48.2 °F 29.9 in Calm     94 % 0 in
05:20 48.7 °F 48.2 °F 29.9 in Calm     94 % 0 in
05:25 48.7 °F 48.2 °F 29.9 in Calm     94 % 0 in
05:30 49.1 °F 48.2 °F 29.9 in Calm     95 % 0 in
05:35 49.3 °F 48.2 °F 29.9 in Calm     95 % 0 in
05:40 49.6 °F 48.2 °F 29.9 in Calm     96 % 0 in
05:45 49.8 °F 50 °F 29.9 in Calm     96 % 0 in
05:50 49.8 °F 50 °F 29.9 in Calm     96 % 0 in
05:55 49.6 °F 48.2 °F 29.9 in Calm     96 % 0 in
06:00 49.6 °F 48.2 °F 29.9 in Calm     96 % 0 in
06:05 49.5 °F 48.2 °F 29.9 in Calm     95 % 0 in
06:10 49.5 °F 48.2 °F 29.9 in Calm     96 % 0 in
06:15 49.5 °F 48.2 °F 29.9 in Calm     96 % 0 in
06:20 49.8 °F 50 °F 29.9 in Calm     96 % 0 in
06:25 50 °F 50 °F 29.9 in Calm     96 % 0 in
06:30 50.2 °F 50 °F 29.9 in Calm     96 % 0 in
06:35 50.2 °F 50 °F 29.9 in Calm     96 % 0 in
06:40 50.4 °F 50 °F 29.9 in Calm     96 % 0 in
06:45 50.7 °F 50 °F 29.9 in Calm     96 % 0 in
06:51 51.1 °F 50 °F 29.9 in Calm     96 % 0 in
06:56 51.6 °F 51.8 °F 29.9 in Calm     96 % 0 in
07:01 51.8 °F 51.8 °F 29.9 in Calm     96 % 0 in
07:06 52.2 °F 51.8 °F 29.9 in Calm     96 % 0 in
07:11 53.1 °F 51.8 °F 29.9 in Calm     96 % 0 in
07:16 54 °F 53.6 °F 29.9 in Calm     96 % 0 in
07:21 54.7 °F 55.4 °F 29.9 in Calm     97 % 0 in
07:23 55 °F 55.4 °F 29.9 in Calm     97 % 0 in
07:28 56.3 °F 55.4 °F 29.9 in Calm     96 % 0 in
07:33 57 °F 57.2 °F 29.9 in Calm     96 % 0 in
07:38 57.9 °F 57.2 °F 29.9 in Calm     95 % 0 in
07:43 58.5 °F 57.2 °F 29.9 in Calm   3.8 mph 94 % 0 in
07:48 59 °F 57.2 °F 29.9 in Calm   3.8 mph 93 % 0 in
07:53 59.4 °F 57.2 °F 29.9 in Calm   2.7 mph 92 % 0 in
07:58 60.1 °F 57.2 °F 29.9 in Calm   2.7 mph 91 % 0 in
08:03 60.6 °F 57.2 °F 29.9 in Calm   3.8 mph 90 % 0 in
08:08 61.3 °F 57.2 °F 29.9 in Calm   4.3 mph 88 % 0 in
08:13 61.9 °F 57.2 °F 29.9 in Calm   4.3 mph 85 % 0 in
08:19 62.6 °F 59 °F 29.9 in Calm   4 mph 85 % 0 in
08:24 63.1 °F 57.2 °F 29.9 in Calm   3.8 mph 82 % 0 in
08:29 63.7 °F 57.2 °F 29.9 in Calm   4.5 mph 80 % 0 in
08:34 63.3 °F 55.4 °F 29.9 in ENE 4.5 mph 5.4 mph 76 % 0 in
08:39 63.5 °F 55.4 °F 29.9 in Calm   5.4 mph 75 % 0 in
08:40 63.5 °F 55.4 °F 29.9 in Calm   5.4 mph 76 % 0 in
08:45 63.7 °F 55.4 °F 29.9 in SSE 3.4 mph 3.8 mph 75 % 0 in
08:50 63.9 °F 55.4 °F 29.9 in Calm   3.4 mph 74 % 0 in
08:55 64.2 °F 57.2 °F 29.9 in South 3.4 mph 3.4 mph 76 % 0 in
09:01 64.6 °F 55.4 °F 29.9 in South 7.4 mph 7.4 mph 72 % 0 in
09:06 64.4 °F 55.4 °F 29.9 in SSE 6 mph 7.4 mph 71 % 0 in
09:11 64.4 °F 53.6 °F 29.9 in Calm   7.6 mph 68 % 0 in
09:16 64.4 °F 55.4 °F 29.9 in SE 0.9 mph 7.6 mph 70 % 0 in
09:21 64.2 °F 53.6 °F 29.9 in SE 2.5 mph 6.5 mph 69 % 0 in
09:26 64.4 °F 53.6 °F 29.9 in Calm   6.5 mph 69 % 0 in
09:31 64.8 °F 55.4 °F 29.9 in Calm   5.6 mph 70 % 0 in
09:36 65.1 °F 55.4 °F 29.9 in SSE 0.9 mph 4.7 mph 70 % 0 in
09:41 65.5 °F 55.4 °F 29.9 in SE 3.6 mph 7.2 mph 67 % 0 in
09:46 65.8 °F 55.4 °F 29.9 in South 0.9 mph 8.5 mph 68 % 0 in
09:51 66 °F 55.4 °F 29.9 in Calm   8.5 mph 65 % 0 in
09:56 66.9 °F 55.4 °F 29.9 in South 5.8 mph 6.3 mph 66 % 0 in
10:01 67.5 °F 55.4 °F 29.9 in Calm   6.3 mph 66 % 0 in
10:06 68.7 °F 57.2 °F 29.9 in SSE 6.5 mph 6.5 mph 65 % 0 in
10:11 69.4 °F 55.4 °F 29.9 in SE 5.6 mph 10.5 mph 62 % 0 in
10:16 70.7 °F 57.2 °F 29.9 in NE 1.1 mph 10.5 mph 60 % 0 in
10:21 70.2 °F 53.6 °F 29.9 in SE 4.7 mph 11 mph 54 % 0 in
10:26 69.8 °F 51.8 °F 29.9 in SSE 2.7 mph 11 mph 53 % 0 in
10:31 70.7 °F 53.6 °F 29.9 in SE 6 mph 10.1 mph 52 % 0 in
10:37 70.3 °F 51.8 °F 29.9 in SSE 7.8 mph 10.1 mph 52 % 0 in
10:42 70.5 °F 53.6 °F 29.9 in ESE 4.3 mph 8.7 mph 53 % 0 in
10:47 71.1 °F 53.6 °F 29.9 in SSE 4.7 mph 9.4 mph 54 % 0 in
10:52 72.5 °F 55.4 °F 29.9 in SE 3.8 mph 9.4 mph 54 % 0 in
10:57 72.1 °F 53.6 °F 29.9 in SSW 7.2 mph 7.8 mph 50 % 0 in
11:02 72.5 °F 53.6 °F 29.9 in SSE 2.9 mph 7.8 mph 50 % 0 in
11:07 72.9 °F 53.6 °F 29.9 in SSE 6 mph 7.8 mph 50 % 0 in
11:12 72.9 °F 53.6 °F 29.9 in SSE 0.9 mph 11.9 mph 50 % 0 in
11:17 73.2 °F 53.6 °F 29.9 in South 6 mph 11.9 mph 49 % 0 in
11:22 73.2 °F 53.6 °F 29.9 in South 6 mph 10.7 mph 48 % 0 in
11:27 72.7 °F 51.8 °F 29.9 in SSE 5.6 mph 12.1 mph 48 % 0 in
11:32 74.1 °F 55.4 °F 29.9 in SE 6 mph 12.1 mph 50 % 0 in
11:37 75 °F 55.4 °F 29.9 in SSE 4.5 mph 8.7 mph 50 % 0 in
11:42 75.7 °F 55.4 °F 29.9 in SSE 5.4 mph 8.7 mph 49 % 0 in
11:47 76.1 °F 53.6 °F 29.9 in South 4.7 mph 12.3 mph 45 % 0 in
11:52 76.3 °F 53.6 °F 29.9 in SSE 4 mph 12.3 mph 44 % 0 in
11:57 76.3 °F 53.6 °F 29.9 in SSE 11.9 mph 11.9 mph 44 % 0 in
12:02 76.8 °F 53.6 °F 29.9 in South 6 mph 11.9 mph 44 % 0 in
12:04 77.2 °F 53.6 °F 29.9 in SSW 1.1 mph 11.9 mph 43 % 0 in
12:09 78.3 °F 53.6 °F 29.9 in SE 6.3 mph 7.8 mph 42 % 0 in
12:14 78.3 °F 53.6 °F 29.9 in SE 2 mph 10.7 mph 42 % 0 in
12:19 78.8 °F 53.6 °F 29.9 in ESE 4.3 mph 11 mph 40 % 0 in
12:24 78.8 °F 53.6 °F 29.9 in SSE 7.4 mph 11 mph 41 % 0 in
12:29 79.2 °F 53.6 °F 29.9 in SSE 1.6 mph 9.8 mph 40 % 0 in
12:34 78.3 °F 51.8 °F 29.9 in ESE 5.4 mph 9.8 mph 39 % 0 in
12:39 79.5 °F 53.6 °F 29.9 in Calm   9.6 mph 41 % 0 in
12:45 79.9 °F 53.6 °F 29.9 in SSE 4 mph 9.6 mph 39 % 0 in
12:50 78.1 °F 50 °F 29.9 in SE 4.9 mph 10.1 mph 38 % 0 in
12:55 78.1 °F 51.8 °F 29.9 in Calm   10.1 mph 40 % 0 in
13:00 77.7 °F 51.8 °F 29.9 in SE 5.8 mph 7.8 mph 40 % 0 in
13:05 77.9 °F 53.6 °F 29.9 in SSE 3.8 mph 7.8 mph 41 % 0 in
13:10 78.3 °F 53.6 °F 29.9 in South 5.4 mph 7.2 mph 41 % 0 in
13:15 78.6 °F 50 °F 29.9 in South 2.9 mph 10.1 mph 37 % 0 in
13:20 79.2 °F 51.8 °F 29.9 in South 8.7 mph 10.1 mph 38 % 0 in
13:25 77 °F 48.2 °F 29.9 in South 3.8 mph 8.7 mph 37 % 0 in
13:30 80.1 °F 51.8 °F 29.9 in SSE 6.3 mph 10.7 mph 38 % 0 in
13:35 78.3 °F 50 °F 29.9 in SE 7.2 mph 10.7 mph 36 % 0 in
13:40 79.3 °F 51.8 °F 29.9 in West 1.6 mph 9.4 mph 38 % 0 in
13:45 79.9 °F 51.8 °F 29.9 in SSE 4.3 mph 8.7 mph 38 % 0 in
13:50 80.8 °F 51.8 °F 29.9 in South 7.4 mph 8.7 mph 37 % 0 in
13:55 80.8 °F 50 °F 29.9 in SW 5.8 mph 12.1 mph 35 % 0 in
14:00 80.8 °F 50 °F 29.9 in South 0.9 mph 12.1 mph 33 % 0 in
14:05 81.3 °F 50 °F 29.9 in SSW 9.2 mph 16.6 mph 33 % 0 in
14:10 81.5 °F 50 °F 29.8 in Calm   16.6 mph 33 % 0 in
14:15 81.3 °F 50 °F 29.8 in SSE 3.4 mph 12.8 mph 33 % 0 in
14:20 79.9 °F 48.2 °F 29.8 in South 3.8 mph 12.8 mph 33 % 0 in
14:25 81 °F 50 °F 29.8 in South 7.2 mph 10.5 mph 34 % 0 in
14:30 81.3 °F 50 °F 29.8 in South 9.8 mph 12.1 mph 33 % 0 in
14:35 79.9 °F 48.2 °F 29.8 in South 4.9 mph 13.2 mph 32 % 0 in
14:40 79.9 °F 50 °F 29.8 in South 6.3 mph 13.2 mph 34 % 0 in
14:45 81 °F 50 °F 29.8 in SSE 4.9 mph 11 mph 34 % 0 in
14:50 80.4 °F 50 °F 29.8 in SSE 6 mph 11 mph 33 % 0 in
14:56 79.7 °F 50 °F 29.8 in South 3.6 mph 9.6 mph 34 % 0 in
15:01 79.9 °F 50 °F 29.8 in South 4.3 mph 8.9 mph 35 % 0 in
15:06 79.9 °F 50 °F 29.8 in SE 7.2 mph 10.7 mph 34 % 0 in
15:11 79.3 °F 50 °F 29.8 in ESE 5.6 mph 10.7 mph 35 % 0 in
15:16 78.8 °F 48.2 °F 29.8 in SSE 8.5 mph 8.7 mph 35 % 0 in
15:21 80.4 °F 51.8 °F 29.8 in SSE 6.5 mph 10.7 mph 36 % 0 in
15:26 81.7 °F 51.8 °F 29.8 in SE 6.5 mph 10.7 mph 34 % 0 in
15:31 79.9 °F 50 °F 29.8 in South 7.6 mph 12.8 mph 34 % 0 in
15:36 80.1 °F 50 °F 29.8 in SSW 5.8 mph 12.8 mph 35 % 0 in
15:38 81 °F 50 °F 29.8 in SSW 6 mph 8.5 mph 34 % 0 in
15:43 81.3 °F 50 °F 29.8 in South 5.8 mph 12.1 mph 34 % 0 in
15:49 80.6 °F 50 °F 29.8 in Calm   12.1 mph 33 % 0 in
15:54 79.5 °F 48.2 °F 29.8 in SSW 8.7 mph 9.4 mph 34 % 0 in
15:59 79.2 °F 48.2 °F 29.8 in South 2.9 mph 9.4 mph 33 % 0 in
16:04 79.2 °F 48.2 °F 29.8 in SE 10.7 mph 10.7 mph 34 % 0 in
16:09 80.1 °F 50 °F 29.8 in South 2 mph 10.7 mph 34 % 0 in
16:14 79.9 °F 50 °F 29.8 in South 4.3 mph 10.3 mph 34 % 0 in
16:19 81 °F 51.8 °F 29.8 in SE 3.1 mph 11.2 mph 35 % 0 in
16:24 80.2 °F 50 °F 29.8 in South 8.1 mph 11.2 mph 34 % 0 in
16:29 79.9 °F 50 °F 29.8 in Calm   8.7 mph 34 % 0 in
16:30 79.9 °F 50 °F 29.8 in SSW 2.5 mph 8.7 mph 34 % 0 in
16:35 81 °F 51.8 °F 29.8 in SSE 8.7 mph 14.3 mph 35 % 0 in
16:40 79.9 °F 50 °F 29.8 in SSE 5.4 mph 14.3 mph 34 % 0 in
16:45 79.7 °F 50 °F 29.8 in ESE 4.9 mph 13.2 mph 34 % 0 in
16:50 80.1 °F 50 °F 29.8 in Calm   7.4 mph 35 % 0 in
16:55 80.6 °F 50 °F 29.8 in SSE 0.9 mph 8.7 mph 35 % 0 in
17:00 81.7 °F 51.8 °F 29.8 in SSE 5.6 mph 10.1 mph 35 % 0 in
17:05 81.7 °F 51.8 °F 29.8 in SSE 5.4 mph 10.1 mph 34 % 0 in
17:10 81.3 °F 51.8 °F 29.8 in ESE 5.4 mph 8.7 mph 35 % 0 in
17:15 80.4 °F 50 °F 29.8 in SE 2.9 mph 11 mph 35 % 0 in
17:20 81.3 °F 51.8 °F 29.8 in Calm   11 mph 36 % 0 in
17:25 81 °F 50 °F 29.8 in South 1.6 mph 9.2 mph 34 % 0 in
17:30 80.2 °F 50 °F 29.8 in SSE 3.8 mph 9.2 mph 34 % 0 in
17:35 79.7 °F 50 °F 29.8 in SSE 5.8 mph 9.6 mph 34 % 0 in
17:40 79.7 °F 50 °F 29.8 in Calm   9.6 mph 35 % 0 in
17:45 79.9 °F 51.8 °F 29.8 in SSE 4 mph 6.3 mph 36 % 0 in
17:50 79.9 °F 50 °F 29.8 in SSE 7.8 mph 7.8 mph 35 % 0 in
17:55 80.4 °F 51.8 °F 29.8 in SSE 1.1 mph 7.8 mph 36 % 0 in
18:00 79.9 °F 50 °F 29.8 in SSW 5.4 mph 7.8 mph 35 % 0 in
18:05 79.2 °F 50 °F 29.8 in SSW 2 mph 7.6 mph 35 % 0 in
18:10 79.2 °F 50 °F 29.8 in SSW 3.4 mph 6 mph 36 % 0 in
18:15 79.3 °F 50 °F 29.8 in SE 4.7 mph 6 mph 36 % 0 in
18:20 79.5 °F 50 °F 29.8 in SW 3.8 mph 6 mph 36 % 0 in
18:25 79.7 °F 51.8 °F 29.8 in SSE 0.9 mph 6 mph 36 % 0 in
18:30 79.7 °F 50 °F 29.8 in SSW 2.9 mph 6 mph 35 % 0 in
18:36 79.3 °F 50 °F 29.8 in SW 7.8 mph 7.8 mph 36 % 0 in
18:41 79 °F 50 °F 29.7 in SSW 3.4 mph 7.8 mph 36 % 0 in
18:46 78.4 °F 50 °F 29.7 in SSW 3.6 mph 5.8 mph 36 % 0 in
18:51 78.1 °F 50 °F 29.7 in SSW 3.8 mph 5.8 mph 37 % 0 in
18:53 78.1 °F 50 °F 29.7 in SSW 3.6 mph 5.8 mph 37 % 0 in
18:58 77.7 °F 50 °F 29.7 in WSW 5.6 mph 5.6 mph 37 % 0 in
19:03 78.3 °F 50 °F 29.7 in SSW 4 mph 7.6 mph 37 % 0 in
19:08 78.3 °F 50 °F 29.7 in SW 7.4 mph 7.6 mph 37 % 0 in
19:13 78.3 °F 50 °F 29.8 in WSW 5.8 mph 7.4 mph 37 % 0 in
19:17 80.6 °F 50 °F 29.8 in WSW 4 mph 7.6 mph 35 % 0 in
19:22 79.2 °F 50 °F 29.8 in SW 8.1 mph 8.5 mph 35 % 0 in
19:27 78.8 °F 50 °F 29.7 in SSW 5.6 mph 8.5 mph 36 % 0 in
19:32 79.7 °F 51.8 °F 29.7 in SW 4.9 mph 7.8 mph 37 % 0 in
19:37 79.9 °F 51.8 °F 29.7 in South 3.1 mph 6.9 mph 37 % 0 in
19:42 78.4 °F 50 °F 29.8 in SSW 6.3 mph 7.8 mph 37 % 0 in
19:47 77.9 °F 50 °F 29.8 in SW 6.5 mph 7.8 mph 37 % 0 in
19:52 77.4 °F 48.2 °F 29.8 in SSW 7.4 mph 8.1 mph 36 % 0 in
19:57 77.9 °F 50 °F 29.8 in Calm   8.1 mph 37 % 0 in
20:02 78.1 °F 50 °F 29.8 in WSW 3.8 mph 8.1 mph 37 % 0 in
20:07 78.4 °F 50 °F 29.8 in WSW 2 mph 7.4 mph 37 % 0 in
20:12 77.4 °F 53.6 °F 29.8 in WNW 3.6 mph 6.7 mph 42 % 0 in
20:17 76.3 °F 53.6 °F 29.8 in ESE 2.2 mph 6.7 mph 44 % 0 in
20:22 74.5 °F 53.6 °F 29.8 in North 8.7 mph 9.6 mph 48 % 0 in
20:27 72.9 °F 53.6 °F 29.8 in North 5.6 mph 9.6 mph 50 % 0 in
20:32 72.1 °F 53.6 °F 29.8 in NNE 5.4 mph 8.5 mph 52 % 0 in
20:37 71.4 °F 53.6 °F 29.8 in NE 5.4 mph 8.5 mph 53 % 0 in
20:42 70.7 °F 53.6 °F 29.8 in NE 5.4 mph 8.5 mph 55 % 0 in
20:48 70 °F 53.6 °F 29.8 in North 6.5 mph 8.5 mph 56 % 0 in
20:53 69.4 °F 53.6 °F 29.8 in North 4.9 mph 7.4 mph 56 % 0 in
20:58 69.1 °F 53.6 °F 29.8 in NNE 3.1 mph 8.5 mph 56 % 0 in
21:03 68.5 °F 53.6 °F 29.8 in NNE 2.7 mph 8.5 mph 58 % 0 in
21:08 68 °F 53.6 °F 29.8 in NNE 1.1 mph 6.3 mph 59 % 0 in
21:13 67.6 °F 53.6 °F 29.8 in North 2.9 mph 6.3 mph 60 % 0 in
21:18 67.3 °F 53.6 °F 29.8 in NNW 6.5 mph 6.5 mph 60 % 0 in
21:23 66.9 °F 53.6 °F 29.8 in NNE 3.8 mph 7.4 mph 61 % 0 in
21:28 66.6 °F 53.6 °F 29.8 in North 2.9 mph 7.4 mph 61 % 0 in
21:33 66.2 °F 53.6 °F 29.8 in North 2.9 mph 5.6 mph 62 % 0 in
21:38 66 °F 53.6 °F 29.8 in Calm   5.6 mph 62 % 0 in
21:43 65.7 °F 51.8 °F 29.8 in Calm   5.6 mph 62 % 0 in
21:48 65.3 °F 51.8 °F 29.8 in Calm   3.6 mph 62 % 0 in
21:53 64.8 °F 51.8 °F 29.8 in Calm   2.2 mph 63 % 0 in
21:58 64.2 °F 51.8 °F 29.8 in Calm   1.3 mph 64 % 0 in
22:03 63.9 °F 51.8 °F 29.8 in Calm   1.3 mph 65 % 0 in
22:08 63.3 °F 51.8 °F 29.8 in Calm     66 % 0 in
22:13 62.8 °F 51.8 °F 29.8 in Calm     67 % 0 in
22:18 62.4 °F 51.8 °F 29.8 in Calm     67 % 0 in
22:23 61.5 °F 51.8 °F 29.8 in Calm     68 % 0 in
22:28 60.8 °F 50 °F 29.8 in Calm     69 % 0 in
22:33 60.3 °F 50 °F 29.8 in Calm     70 % 0 in
22:38 59.7 °F 50 °F 29.8 in Calm   2 mph 71 % 0 in
22:43 59.4 °F 50 °F 29.8 in Calm   2 mph 71 % 0 in
22:48 58.8 °F 50 °F 29.8 in Calm     72 % 0 in
22:54 58.5 °F 50 °F 29.8 in Calm     73 % 0 in
22:59 58.1 °F 50 °F 29.8 in Calm     74 % 0 in
23:04 57.7 °F 50 °F 29.8 in Calm     75 % 0 in
23:09 57.4 °F 50 °F 29.8 in Calm     75 % 0 in
23:14 57 °F 50 °F 29.8 in Calm     76 % 0 in
23:19 56.7 °F 50 °F 29.8 in Calm     77 % 0 in
23:24 56.5 °F 50 °F 29.8 in West 2 mph 2 mph 78 % 0 in
23:29 56.5 °F 50 °F 29.8 in Calm   4.3 mph 79 % 0 in
23:34 56.5 °F 50 °F 29.8 in Calm   4.3 mph 79 % 0 in
23:39 56.3 °F 51.8 °F 29.8 in Calm   5.4 mph 80 % 0 in
23:44 56.1 °F 50 °F 29.8 in Calm   5.4 mph 80 % 0 in
23:49 55.9 °F 50 °F 29.8 in Calm   3.1 mph 81 % 0 in
23:54 55.9 °F 51.8 °F 29.8 in Calm     82 % 0 in
23:59 55.8 °F 51.8 °F 29.8 in Calm     82 % 0 in
Le Gheer Warneton
Courtoisie de Weather Underground - 2.25 mb

Mise a jour : 16-12-17 15:43:11
Généré par Cumulus 1.9.4 (1099)